createdAt,value
2023-04-24T00:03:07.989Z,9.39
2023-04-24T00:08:10.469Z,9.44
2023-04-24T00:13:12.774Z,9.41
2023-04-24T00:18:15.242Z,9.40
2023-04-24T00:23:17.499Z,9.32
2023-04-24T00:28:19.794Z,9.28
2023-04-24T00:33:22.177Z,9.24
2023-04-24T00:38:24.530Z,9.28
2023-04-24T00:43:26.931Z,9.29
2023-04-24T00:48:37.684Z,9.32
2023-04-24T00:53:40.022Z,9.32
2023-04-24T00:58:42.736Z,9.23
2023-04-24T01:03:45.111Z,9.19
2023-04-24T01:08:48.431Z,9.19
2023-04-24T01:13:51.662Z,9.15
2023-04-24T01:18:55.028Z,9.10
2023-04-24T01:23:57.398Z,9.07
2023-04-24T01:28:59.735Z,9.08
2023-04-24T01:34:02.355Z,9.02
2023-04-24T01:39:05.498Z,8.99
2023-04-24T01:44:07.739Z,9.03
2023-04-24T01:49:10.703Z,9.01
2023-04-24T01:54:13.830Z,8.97
2023-04-24T01:59:24.922Z,8.95
2023-04-24T02:04:27.220Z,8.92
2023-04-24T02:09:30.065Z,8.90
2023-04-24T02:14:32.345Z,8.91
2023-04-24T02:19:34.669Z,8.90
2023-04-24T02:24:37.069Z,8.93
2023-04-24T02:29:40.547Z,8.89
2023-04-24T02:34:43.485Z,8.87
2023-04-24T02:39:46.094Z,8.94
2023-04-24T02:44:49.145Z,8.87
2023-04-24T02:49:52.357Z,8.78
2023-04-24T02:54:55.865Z,8.64
2023-04-24T02:59:58.958Z,8.64
2023-04-24T03:05:01.254Z,8.61
2023-04-24T03:10:03.934Z,8.56
2023-04-24T03:15:06.485Z,8.51
2023-04-24T03:20:10.007Z,8.47
2023-04-24T03:25:14.906Z,8.41
2023-04-24T03:30:17.189Z,8.33
2023-04-24T03:35:20.405Z,8.35
2023-04-24T03:40:23.582Z,8.29
2023-04-24T03:45:26.710Z,8.32
2023-04-24T03:50:30.114Z,8.32
2023-04-24T03:55:32.794Z,8.31
2023-04-24T04:00:35.591Z,8.33
2023-04-24T04:05:37.823Z,8.31
2023-04-24T04:10:40.392Z,8.29
2023-04-24T04:15:43.318Z,8.30
2023-04-24T04:20:45.621Z,8.34
2023-04-24T04:25:47.982Z,8.35
2023-04-24T04:30:50.326Z,8.31
2023-04-24T04:35:53.402Z,8.36
2023-04-24T04:40:57.286Z,8.35
2023-04-24T04:46:00.728Z,8.38
2023-04-24T04:51:04.591Z,8.44
2023-04-24T04:56:07.018Z,8.47
2023-04-24T05:01:09.296Z,8.57
2023-04-24T05:06:12.378Z,8.55
2023-04-24T05:11:14.802Z,8.58
2023-04-24T05:16:17.176Z,8.74
2023-04-24T05:21:19.558Z,8.84
2023-04-24T05:26:21.863Z,8.93
2023-04-24T05:31:24.891Z,9.00
2023-04-24T05:36:28.114Z,9.06
2023-04-24T05:41:30.644Z,9.22
2023-04-24T05:46:33.159Z,9.36
2023-04-24T05:51:35.542Z,9.42
2023-04-24T05:56:37.927Z,9.60
2023-04-24T06:01:40.383Z,9.83
2023-04-24T06:06:44.314Z,10.06
2023-04-24T06:11:46.665Z,10.22
2023-04-24T06:16:50.338Z,10.54
2023-04-24T06:21:53.747Z,10.92
2023-04-24T06:26:57.686Z,11.16
2023-04-24T06:32:02.627Z,10.97
2023-04-24T06:37:05.848Z,11.09
2023-04-24T06:42:09.104Z,10.94
2023-04-24T06:47:14.459Z,11.04
2023-04-24T06:52:17.311Z,11.45
2023-04-24T06:57:19.652Z,11.65
2023-04-24T07:02:23.009Z,11.69
2023-04-24T07:07:25.701Z,11.64
2023-04-24T07:12:28.002Z,12.17
2023-04-24T07:17:30.812Z,11.96
2023-04-24T07:22:41.558Z,12.33
2023-04-24T07:27:43.874Z,12.04
2023-04-24T07:32:46.209Z,12.32
2023-04-24T07:37:48.684Z,12.34
2023-04-24T07:42:51.824Z,11.96
2023-04-24T07:47:54.162Z,11.99
2023-04-24T07:52:56.497Z,11.95
2023-04-24T07:57:59.033Z,12.03
2023-04-24T08:03:01.505Z,12.48
2023-04-24T08:08:04.065Z,12.56
2023-04-24T08:13:07.217Z,12.60
2023-04-24T08:18:12.825Z,11.96
2023-04-24T08:23:15.359Z,11.48
2023-04-24T08:28:21.276Z,11.22
2023-04-24T08:33:23.598Z,10.59
2023-04-24T08:38:26.038Z,10.38
2023-04-24T08:43:29.217Z,10.05
2023-04-24T08:48:32.366Z,9.92
2023-04-24T08:53:35.816Z,10.54
2023-04-24T08:58:38.228Z,10.39
2023-04-24T09:03:40.623Z,10.24
2023-04-24T09:08:43.272Z,10.13
2023-04-24T09:13:45.601Z,10.21
2023-04-24T09:18:47.876Z,10.57
2023-04-24T09:23:50.097Z,11.11
2023-04-24T09:28:52.569Z,11.64
2023-04-24T09:33:54.908Z,12.17
2023-04-24T09:38:57.354Z,12.42
2023-04-24T09:44:00.390Z,12.77
2023-04-24T09:49:02.771Z,12.70
2023-04-24T09:54:05.321Z,12.90
2023-04-24T09:59:08.040Z,12.66
2023-04-24T10:04:11.601Z,12.87
2023-04-24T10:09:15.185Z,13.60
2023-04-24T10:14:17.526Z,14.16
2023-04-24T10:19:20.924Z,13.79
2023-04-24T10:24:24.126Z,13.48
2023-04-24T10:29:26.834Z,13.29
2023-04-24T10:34:29.186Z,13.76
2023-04-24T10:39:31.772Z,14.41
2023-04-24T10:44:34.148Z,14.44
2023-04-24T10:49:36.485Z,13.43
2023-04-24T10:54:38.788Z,10.21
2023-04-24T10:59:42.049Z,8.22
2023-04-24T11:04:44.652Z,8.45
2023-04-24T11:09:47.126Z,9.33
2023-04-24T11:14:49.749Z,10.27
2023-04-24T11:19:52.649Z,11.31
2023-04-24T11:24:56.181Z,11.72
2023-04-24T11:29:59.127Z,12.25
2023-04-24T11:35:03.116Z,12.00
2023-04-24T11:40:06.276Z,12.00
2023-04-24T11:45:08.592Z,11.98
2023-04-24T11:50:11.565Z,11.80
2023-04-24T11:55:13.923Z,12.13
2023-04-24T12:00:16.341Z,12.23
2023-04-24T12:05:20.311Z,12.43
2023-04-24T12:10:30.749Z,12.73
2023-04-24T12:15:33.234Z,12.55
2023-04-24T12:20:35.836Z,13.02
2023-04-24T12:25:38.134Z,13.53
2023-04-24T12:30:40.532Z,13.14
2023-04-24T12:35:44.193Z,13.04
2023-04-24T12:40:46.889Z,13.18
2023-04-24T12:45:49.637Z,13.49
2023-04-24T12:50:52.379Z,13.78
2023-04-24T12:55:54.757Z,13.79
2023-04-24T13:00:57.117Z,13.60
2023-04-24T13:06:00.404Z,13.55
2023-04-24T13:11:03.770Z,12.48
2023-04-24T13:16:07.412Z,11.41
2023-04-24T13:21:10.047Z,11.40
2023-04-24T13:26:22.493Z,12.51
2023-04-24T13:31:25.652Z,12.63
2023-04-24T13:36:28.328Z,13.43
2023-04-24T13:41:30.661Z,13.72
2023-04-24T13:46:33.894Z,13.74
2023-04-24T13:51:36.414Z,13.34
2023-04-24T13:56:39.641Z,13.56
2023-04-24T14:01:42.047Z,13.59
2023-04-24T14:06:45.164Z,13.98
2023-04-24T14:11:48.263Z,13.52
2023-04-24T14:16:50.691Z,13.09
2023-04-24T14:21:53.494Z,13.03
2023-04-24T14:26:57.349Z,13.59
2023-04-24T14:32:00.749Z,13.36
2023-04-24T14:37:09.187Z,13.57
2023-04-24T14:42:11.778Z,13.94
2023-04-24T14:47:24.247Z,13.77
2023-04-24T14:52:26.569Z,13.10
2023-04-24T14:57:29.659Z,13.04
2023-04-24T15:02:32.654Z,13.50
2023-04-24T15:07:36.655Z,13.66
2023-04-24T15:12:39.047Z,13.89
2023-04-24T15:17:41.409Z,13.43
2023-04-24T15:22:44.138Z,13.52
2023-04-24T15:27:46.518Z,13.61
2023-04-24T15:32:49.301Z,14.22
2023-04-24T15:37:53.786Z,13.51
2023-04-24T15:42:57.318Z,13.68
2023-04-24T15:48:01.593Z,13.66
2023-04-24T15:53:06.885Z,13.90
2023-04-24T15:58:09.245Z,13.67
2023-04-24T16:03:12.367Z,13.56
2023-04-24T16:08:15.494Z,13.04
2023-04-24T16:13:18.709Z,12.89
2023-04-24T16:18:22.448Z,12.57
2023-04-24T16:23:24.685Z,12.43
2023-04-24T16:28:27.762Z,12.57
2023-04-24T16:33:31.612Z,12.68
2023-04-24T16:38:34.009Z,12.55
2023-04-24T16:43:37.410Z,12.05
2023-04-24T16:48:39.765Z,11.77
2023-04-24T16:53:42.462Z,11.72
2023-04-24T16:58:49.609Z,11.59
2023-04-24T17:03:52.254Z,11.58
2023-04-24T17:08:55.512Z,11.25
2023-04-24T17:13:59.570Z,11.05
2023-04-24T17:19:02.004Z,10.86
2023-04-24T17:24:04.826Z,10.77
2023-04-24T17:29:07.182Z,10.67
2023-04-24T17:34:10.317Z,10.53
2023-04-24T17:39:13.821Z,10.42
2023-04-24T17:44:17.848Z,10.27
2023-04-24T17:49:20.915Z,10.14
2023-04-24T17:54:23.654Z,9.99
2023-04-24T17:59:26.787Z,9.90
2023-04-24T18:04:29.311Z,9.72
2023-04-24T18:09:31.734Z,9.61
2023-04-24T18:14:34.058Z,9.36
2023-04-24T18:19:37.337Z,9.36
2023-04-24T18:24:40.392Z,9.16
2023-04-24T18:29:45.239Z,9.03
2023-04-24T18:34:48.350Z,8.78
2023-04-24T21:16:35.404Z,7.24
2023-04-24T21:21:38.545Z,7.12
2023-04-24T21:26:40.835Z,7.01
2023-04-24T21:31:43.320Z,6.89
2023-04-24T21:36:46.963Z,6.88
2023-04-24T21:41:49.365Z,6.84
2023-04-24T21:46:51.749Z,6.87
2023-04-24T21:51:54.071Z,7.11
2023-04-24T21:56:57.098Z,7.16
2023-04-24T22:02:00.150Z,7.16
2023-04-24T22:07:02.597Z,7.23
2023-04-24T22:12:04.898Z,7.28
2023-04-24T22:17:07.289Z,7.25
2023-04-24T22:22:10.005Z,7.14
2023-04-24T22:27:12.600Z,7.08
2023-04-24T22:32:14.965Z,6.84
2023-04-24T22:37:17.973Z,6.78
2023-04-24T22:42:21.315Z,6.74
2023-04-24T22:47:24.442Z,6.76
2023-04-24T22:52:28.765Z,6.80
2023-04-24T22:57:31.039Z,6.89
2023-04-24T23:02:33.773Z,7.00
2023-04-24T23:07:36.647Z,7.11
2023-04-24T23:12:39.054Z,7.14
2023-04-24T23:17:42.157Z,7.08
2023-04-24T23:22:44.774Z,7.07
2023-04-24T23:27:47.461Z,6.95
2023-04-24T23:32:51.123Z,6.94
2023-04-24T23:37:53.849Z,7.07
2023-04-24T23:43:06.415Z,7.01
2023-04-24T23:48:09.586Z,7.03
2023-04-24T23:53:11.961Z,7.05
2023-04-24T23:58:14.283Z,7.00
